Time;durP1;ratioP1;P1;durP2;ratioP2;P2;SDS_P1;SDS_P2;PMS_P1;PMS_P2;Temp;Humidity;BMP_temperature;BMP_pressure;BME280_temperature;BME280_humidity;BME280_pressure;Samples;Min_cycle;Max_cycle;Signal;HPM_P1;HPM_P2
2022/03/14 00:01:14;;;;;;;33.75;19.20;;;;;;;;;;5037092;28;20120;-60
2022/03/14 00:03:50;;;;;;;40.78;21.23;;;;;;;;;;5035940;28;20021;-60
2022/03/14 00:06:16;;;;;;;42.30;22.05;;;;;;;;;;5037112;28;20052;-60
2022/03/14 00:08:42;;;;;;;42.10;22.40;;;;;;;;;;5037203;28;20021;-60
2022/03/14 00:11:08;;;;;;;45.05;21.77;;;;;;;;;;5037068;28;20447;-61
2022/03/14 00:13:33;;;;;;;42.42;22.85;;;;;;;;;;5037001;28;20014;-61
2022/03/14 00:15:59;;;;;;;42.63;22.67;;;;;;;;;;5037080;28;20025;-61
2022/03/14 00:18:26;;;;;;;37.40;21.52;;;;;;;;;;5035750;28;20071;-61
2022/03/14 00:20:51;;;;;;;37.67;22.45;;;;;;;;;;5035518;28;20477;-61
2022/03/14 00:23:18;;;;;;;43.20;23.23;;;;;;;;;;5036949;28;20021;-61
2022/03/14 00:25:46;;;;;;;45.25;24.25;;;;;;;;;;5036349;28;20047;-61
2022/03/14 00:28:12;;;;;;;42.38;23.13;;;;;;;;;;5036900;28;20025;-61
2022/03/14 00:30:37;;;;;;;42.38;22.95;;;;;;;;;;5036722;28;20037;-61
2022/03/14 00:33:03;;;;;;;42.45;21.98;;;;;;;;;;5036519;28;20414;-61
2022/03/14 00:35:29;;;;;;;46.42;23.52;;;;;;;;;;5036665;28;20052;-61
2022/03/14 00:37:54;;;;;;;41.67;22.98;;;;;;;;;;5036712;28;20051;-61
2022/03/14 00:40:20;;;;;;;45.28;24.02;;;;;;;;;;5036422;28;20034;-61
2022/03/14 00:42:48;;;;;;;39.22;22.10;;;;;;;;;;5036672;28;20349;-61
2022/03/14 00:45:14;;;;;;;35.45;21.38;;;;;;;;;;5036266;28;20040;-61
2022/03/14 00:47:40;;;;;;;39.00;24.20;;;;;;;;;;5036456;28;20061;-61
2022/03/14 00:50:06;;;;;;;35.08;21.42;;;;;;;;;;5036280;28;20029;-61
2022/03/14 00:52:31;;;;;;;35.47;20.80;;;;;;;;;;5036479;28;20013;-61
2022/03/14 00:54:56;;;;;;;39.22;22.08;;;;;;;;;;5035903;28;20055;-61
2022/03/14 00:57:22;;;;;;;39.65;22.30;;;;;;;;;;5036263;28;20111;-61
2022/03/14 00:59:48;;;;;;;34.85;20.75;;;;;;;;;;5034123;28;20034;-61
2022/03/14 01:02:14;;;;;;;40.03;22.88;;;;;;;;;;5036277;28;20044;-61
2022/03/14 01:04:39;;;;;;;38.58;21.50;;;;;;;;;;5035872;28;20057;-61
2022/03/14 01:07:05;;;;;;;37.50;21.42;;;;;;;;;;5034934;28;20017;-61
2022/03/14 01:09:31;;;;;;;34.65;21.25;;;;;;;;;;5035758;28;20342;-61
2022/03/14 01:11:56;;;;;;;39.85;20.92;;;;;;;;;;5035856;28;20033;-61
2022/03/14 01:14:22;;;;;;;34.10;21.92;;;;;;;;;;5036022;28;20025;-61
2022/03/14 01:16:48;;;;;;;34.53;20.88;;;;;;;;;;5035900;28;20017;-60
2022/03/14 01:19:15;;;;;;;35.80;20.48;;;;;;;;;;5035880;28;20044;-61
2022/03/14 01:21:41;;;;;;;34.28;20.23;;;;;;;;;;5035489;28;20028;-60
2022/03/14 01:24:07;;;;;;;42.00;24.60;;;;;;;;;;5034237;28;20395;-60
2022/03/14 01:26:34;;;;;;;46.03;25.92;;;;;;;;;;5015774;28;20042;-60
2022/03/14 01:29:00;;;;;;;52.95;26.75;;;;;;;;;;5015815;28;20095;-60
2022/03/14 01:31:26;;;;;;;54.50;28.73;;;;;;;;;;5014522;28;20022;-60
2022/03/14 01:33:52;;;;;;;48.17;26.65;;;;;;;;;;5015890;28;20534;-60
2022/03/14 01:36:18;;;;;;;41.25;24.67;;;;;;;;;;5015774;28;20022;-61
2022/03/14 01:38:43;;;;;;;32.00;20.60;;;;;;;;;;5015606;28;20118;-61
2022/03/14 01:41:10;;;;;;;34.65;20.15;;;;;;;;;;5015532;28;20476;-61
2022/03/14 01:43:36;;;;;;;36.63;21.40;;;;;;;;;;5014537;28;20468;-61
2022/03/14 01:46:01;;;;;;;35.67;21.33;;;;;;;;;;5014430;28;20020;-61
2022/03/14 01:48:32;;;;;;;;;;;;;;;;;;5014622;28;20032;-61
2022/03/14 01:50:57;;;;;;;61.78;30.23;;;;;;;;;;5014810;28;19909;-61
2022/03/14 01:53:26;;;;;;;34.97;19.77;;;;;;;;;;5015294;28;20479;-61
2022/03/14 01:55:52;;;;;;;33.00;20.90;;;;;;;;;;5015413;28;20068;-61
2022/03/14 01:58:18;;;;;;;34.47;20.38;;;;;;;;;;5015443;28;20033;-61
2022/03/14 02:00:43;;;;;;;33.85;20.23;;;;;;;;;;5015352;28;20030;-61
2022/03/14 02:03:09;;;;;;;34.22;21.13;;;;;;;;;;5015106;28;20064;-61
2022/03/14 02:05:36;;;;;;;43.20;24.15;;;;;;;;;;5014913;28;20029;-61
2022/03/14 02:08:02;;;;;;;44.33;25.20;;;;;;;;;;5014880;28;20056;-61
2022/03/14 02:10:28;;;;;;;38.95;23.42;;;;;;;;;;5014958;28;20026;-61
2022/03/14 02:12:53;;;;;;;35.20;20.27;;;;;;;;;;5014584;28;20414;-61
2022/03/14 02:15:19;;;;;;;34.40;20.75;;;;;;;;;;5014721;28;20037;-61
2022/03/14 02:17:45;;;;;;;36.35;21.50;;;;;;;;;;5014897;28;20409;-60
2022/03/14 02:20:10;;;;;;;39.05;23.35;;;;;;;;;;5014645;28;20076;-60
2022/03/14 02:22:35;;;;;;;37.15;22.38;;;;;;;;;;5014622;28;20022;-61
2022/03/14 02:25:01;;;;;;;40.53;22.90;;;;;;;;;;5021456;28;20038;-61
2022/03/14 02:27:27;;;;;;;33.35;20.92;;;;;;;;;;5034266;28;20109;-61
2022/03/14 02:29:52;;;;;;;34.10;21.05;;;;;;;;;;5032947;28;20529;-60
2022/03/14 02:32:18;;;;;;;37.17;22.40;;;;;;;;;;5033117;28;20031;-61
2022/03/14 02:34:43;;;;;;;36.55;22.20;;;;;;;;;;5034343;28;20028;-61
2022/03/14 02:37:09;;;;;;;35.13;21.92;;;;;;;;;;5034083;28;20009;-61
2022/03/14 02:39:37;;;;;;;35.22;21.70;;;;;;;;;;5034270;28;20034;-61
2022/03/14 02:42:03;;;;;;;32.40;21.63;;;;;;;;;;5034233;28;20490;-61
2022/03/14 02:44:29;;;;;;;35.90;21.38;;;;;;;;;;5033556;28;20433;-61
2022/03/14 02:46:56;;;;;;;35.55;21.70;;;;;;;;;;5034156;28;20044;-61
2022/03/14 02:49:22;;;;;;;36.05;21.23;;;;;;;;;;5033991;28;20068;-60
2022/03/14 02:51:47;;;;;;;34.03;21.58;;;;;;;;;;5034206;28;20349;-60
2022/03/14 02:54:13;;;;;;;34.92;19.92;;;;;;;;;;5032915;28;20537;-61
2022/03/14 02:56:39;;;;;;;32.80;20.55;;;;;;;;;;5034075;28;20411;-61
2022/03/14 02:59:09;;;;;;;31.67;20.65;;;;;;;;;;5032442;28;20033;-60
2022/03/14 03:01:35;;;;;;;37.58;22.13;;;;;;;;;;5033710;28;20114;-61
2022/03/14 03:04:01;;;;;;;36.58;22.25;;;;;;;;;;5032728;28;20065;-60
2022/03/14 03:06:27;;;;;;;35.25;20.75;;;;;;;;;;5033808;28;20025;-60
2022/03/14 03:08:53;;;;;;;35.08;20.75;;;;;;;;;;5033662;28;20029;-61
2022/03/14 03:11:19;;;;;;;30.60;20.52;;;;;;;;;;5033731;28;20023;-61
2022/03/14 03:13:46;;;;;;;33.75;20.67;;;;;;;;;;5033425;28;20088;-64
2022/03/14 03:16:15;;;;;;;41.08;22.02;;;;;;;;;;5033786;28;20029;-64
2022/03/14 03:18:41;;;;;;;41.45;23.08;;;;;;;;;;5033704;28;20021;-64
2022/03/14 03:21:07;;;;;;;39.15;22.33;;;;;;;;;;5032347;28;20380;-64
2022/03/14 03:23:34;;;;;;;36.28;22.25;;;;;;;;;;5033001;28;20040;-65
2022/03/14 03:25:59;;;;;;;36.20;21.67;;;;;;;;;;5031928;28;20048;-60
2022/03/14 03:28:25;;;;;;;35.20;21.50;;;;;;;;;;5033370;28;20022;-60
2022/03/14 03:30:50;;;;;;;33.40;21.55;;;;;;;;;;5033565;28;20025;-60
2022/03/14 03:33:16;;;;;;;36.97;21.63;;;;;;;;;;5033542;28;20063;-60
2022/03/14 03:35:42;;;;;;;34.03;21.50;;;;;;;;;;5033273;28;20022;-61
2022/03/14 03:38:08;;;;;;;35.15;21.27;;;;;;;;;;5032162;28;20026;-62
2022/03/14 03:40:33;;;;;;;33.38;22.13;;;;;;;;;;5026603;28;20033;-62
2022/03/14 03:42:59;;;;;;;38.67;21.05;;;;;;;;;;5030134;28;20738;-62
2022/03/14 03:45:24;;;;;;;35.55;21.75;;;;;;;;;;5028780;28;20082;-62
2022/03/14 03:47:50;;;;;;;38.22;23.17;;;;;;;;;;5030082;28;20029;-62
2022/03/14 03:50:16;;;;;;;37.75;22.70;;;;;;;;;;5029993;28;20364;-62
2022/03/14 03:52:41;;;;;;;36.40;23.27;;;;;;;;;;5030143;28;20075;-62
2022/03/14 03:55:09;;;;;;;32.03;21.65;;;;;;;;;;5029155;28;20048;-62
2022/03/14 03:57:35;;;;;;;31.50;21.63;;;;;;;;;;5029295;28;20033;-62
2022/03/14 04:00:03;;;;;;;35.63;23.25;;;;;;;;;;5028709;28;20013;-62
2022/03/14 04:02:39;;;;;;;33.65;20.98;;;;;;;;;;5029041;28;20399;-62
2022/03/14 04:05:05;;;;;;;33.30;20.23;;;;;;;;;;5028410;28;20076;-62
2022/03/14 04:07:32;;;;;;;32.20;20.88;;;;;;;;;;5029854;28;20118;-62
2022/03/14 04:09:59;;;;;;;34.58;21.00;;;;;;;;;;5029510;28;20056;-62
2022/03/14 04:12:26;;;;;;;35.95;22.15;;;;;;;;;;5029287;28;20018;-62
2022/03/14 04:14:56;;;;;;;34.05;21.35;;;;;;;;;;5028045;28;20033;-62
2022/03/14 04:17:24;;;;;;;32.35;21.58;;;;;;;;;;5029871;28;20479;-62
2022/03/14 04:19:51;;;;;;;88.88;50.72;;;;;;;;;;5029716;28;20531;-62
2022/03/14 04:22:16;;;;;;;66.53;41.67;;;;;;;;;;5029717;28;20056;-62
2022/03/14 04:24:42;;;;;;;51.50;32.58;;;;;;;;;;5029359;28;20069;-62
2022/03/14 04:27:08;;;;;;;43.80;26.67;;;;;;;;;;5029843;28;20483;-63
2022/03/14 04:29:34;;;;;;;36.35;23.17;;;;;;;;;;5030331;28;20033;-62
2022/03/14 04:31:59;;;;;;;41.38;24.70;;;;;;;;;;5033082;28;20014;-62
2022/03/14 04:34:25;;;;;;;36.75;25.15;;;;;;;;;;5034082;28;20502;-62
2022/03/14 04:36:50;;;;;;;34.33;23.13;;;;;;;;;;5036534;28;20029;-62
2022/03/14 04:39:20;;;;;;;33.72;21.92;;;;;;;;;;5036816;28;20095;-62
2022/03/14 04:41:46;;;;;;;35.75;22.45;;;;;;;;;;5036664;28;20025;-62
2022/03/14 04:44:11;;;;;;;35.88;22.13;;;;;;;;;;5036402;28;20044;-62
2022/03/14 04:46:37;;;;;;;35.13;21.70;;;;;;;;;;5036169;28;20029;-63
2022/03/14 04:49:04;;;;;;;35.30;21.63;;;;;;;;;;5036065;28;20476;-62
2022/03/14 04:51:30;;;;;;;39.60;21.98;;;;;;;;;;5036147;28;20017;-62
2022/03/14 04:53:56;;;;;;;36.97;21.75;;;;;;;;;;5036067;28;20484;-62
2022/03/14 04:56:21;;;;;;;34.42;21.75;;;;;;;;;;5034831;28;20032;-62
2022/03/14 04:58:47;;;;;;;33.72;21.67;;;;;;;;;;5036143;28;20033;-61
2022/03/14 05:01:12;;;;;;;34.25;21.13;;;;;;;;;;5035793;28;20033;-63
2022/03/14 05:03:38;;;;;;;32.85;22.05;;;;;;;;;;5036295;28;20468;-63
2022/03/14 05:06:03;;;;;;;37.97;23.27;;;;;;;;;;5036167;28;20022;-63
2022/03/14 05:08:35;;;;;;;33.08;21.80;;;;;;;;;;5036087;28;20041;-63
2022/03/14 05:11:01;;;;;;;35.88;23.02;;;;;;;;;;5036193;28;20037;-62
2022/03/14 05:13:26;;;;;;;41.45;26.33;;;;;;;;;;5035924;28;20021;-62
2022/03/14 05:15:51;;;;;;;37.03;23.50;;;;;;;;;;5035886;28;20030;-61
2022/03/14 05:18:17;;;;;;;41.72;24.40;;;;;;;;;;5034943;28;20092;-61
2022/03/14 05:20:42;;;;;;;40.40;25.63;;;;;;;;;;5035913;28;20048;-62
2022/03/14 05:23:08;;;;;;;43.47;27.38;;;;;;;;;;5035723;28;20379;-62
2022/03/14 05:25:34;;;;;;;51.30;32.42;;;;;;;;;;5033732;28;20068;-63
2022/03/14 05:28:00;;;;;;;54.15;31.98;;;;;;;;;;5035278;28;20037;-62
2022/03/14 05:30:25;;;;;;;52.83;29.42;;;;;;;;;;5035106;28;20021;-63
2022/03/14 05:32:51;;;;;;;42.55;26.92;;;;;;;;;;5035183;28;20064;-62
2022/03/14 05:35:17;;;;;;;38.63;24.45;;;;;;;;;;5034266;28;20010;-62
2022/03/14 05:37:43;;;;;;;38.47;24.60;;;;;;;;;;5033277;28;20061;-62
2022/03/14 05:40:09;;;;;;;78.53;42.67;;;;;;;;;;5033702;28;20411;-62
2022/03/14 05:42:35;;;;;;;92.38;50.15;;;;;;;;;;5034885;28;20026;-62
2022/03/14 05:45:00;;;;;;;91.80;51.65;;;;;;;;;;5034553;28;20021;-61
2022/03/14 05:47:26;;;;;;;79.57;47.67;;;;;;;;;;5034943;28;20120;-62
2022/03/14 05:49:51;;;;;;;76.18;43.70;;;;;;;;;;5033497;28;20037;-62
2022/03/14 05:52:17;;;;;;;65.68;37.40;;;;;;;;;;5033532;28;20029;-63
2022/03/14 05:54:42;;;;;;;56.97;33.38;;;;;;;;;;5034871;28;20045;-62
2022/03/14 05:57:08;;;;;;;51.03;31.38;;;;;;;;;;5034913;28;20460;-62
2022/03/14 05:59:33;;;;;;;53.70;35.03;;;;;;;;;;5034625;28;20032;-62
2022/03/14 06:01:59;;;;;;;49.28;30.30;;;;;;;;;;5033309;28;20368;-62
2022/03/14 06:04:24;;;;;;;40.15;26.63;;;;;;;;;;5034606;28;20017;-62
2022/03/14 06:06:50;;;;;;;39.95;26.48;;;;;;;;;;5034579;28;20029;-62
2022/03/14 06:09:15;;;;;;;43.95;27.15;;;;;;;;;;5033253;28;20059;-63
2022/03/14 06:11:42;;;;;;;45.78;26.20;;;;;;;;;;5034479;28;20041;-63
2022/03/14 06:14:08;;;;;;;45.28;27.98;;;;;;;;;;5033167;28;20025;-63
2022/03/14 06:16:34;;;;;;;40.85;26.77;;;;;;;;;;5033044;28;20061;-63
2022/03/14 06:18:59;;;;;;;43.67;26.90;;;;;;;;;;5034296;28;20049;-63
2022/03/14 06:21:24;;;;;;;40.72;25.98;;;;;;;;;;5034109;28;20029;-63
2022/03/14 06:23:50;;;;;;;41.20;25.98;;;;;;;;;;5034106;28;20025;-63
2022/03/14 06:26:16;;;;;;;43.30;27.08;;;;;;;;;;5034276;28;20052;-62
2022/03/14 06:28:42;;;;;;;52.38;29.83;;;;;;;;;;5034119;28;20106;-62
2022/03/14 06:31:09;;;;;;;46.92;29.48;;;;;;;;;;5034095;28;20460;-63
2022/03/14 06:33:39;;;;;;;37.35;25.60;;;;;;;;;;5032720;28;20025;-62
2022/03/14 06:36:04;;;;;;;40.88;25.55;;;;;;;;;;5033849;28;20032;-63
2022/03/14 06:38:31;;;;;;;38.08;24.40;;;;;;;;;;5033849;28;20100;-63
2022/03/14 06:40:57;;;;;;;43.15;26.65;;;;;;;;;;5033810;28;20026;-62
2022/03/14 06:43:23;;;;;;;75.18;38.83;;;;;;;;;;5033838;28;20035;-62
2022/03/14 06:45:48;;;;;;;46.13;28.08;;;;;;;;;;5032605;28;20029;-62
2022/03/14 06:48:14;;;;;;;37.40;22.90;;;;;;;;;;5032386;28;20052;-63
2022/03/14 06:50:39;;;;;;;36.25;21.67;;;;;;;;;;5033654;28;20118;-62
2022/03/14 06:53:05;;;;;;;33.40;21.30;;;;;;;;;;5016039;28;20108;-62
2022/03/14 06:55:31;;;;;;;34.20;21.80;;;;;;;;;;5032227;28;20021;-63
2022/03/14 06:57:56;;;;;;;29.65;19.83;;;;;;;;;;5031588;28;20024;-63
2022/03/14 07:00:22;;;;;;;35.53;21.35;;;;;;;;;;5032280;28;20033;-63
2022/03/14 07:02:49;;;;;;;33.78;20.77;;;;;;;;;;5033465;28;20028;-63
2022/03/14 07:05:20;;;;;;;34.38;20.92;;;;;;;;;;5032196;28;20468;-63
2022/03/14 07:07:46;;;;;;;36.33;22.10;;;;;;;;;;5032235;28;20502;-62
2022/03/14 07:10:13;;;;;;;36.38;23.15;;;;;;;;;;5033460;28;20077;-62
2022/03/14 07:12:46;;;;;;;33.30;20.98;;;;;;;;;;5033509;28;20491;-62
2022/03/14 07:15:22;;;;;;;31.30;20.63;;;;;;;;;;5033345;28;20025;-62
2022/03/14 07:17:48;;;;;;;29.08;18.35;;;;;;;;;;5033086;28;20479;-62
2022/03/14 07:20:14;;;;;;;32.50;19.90;;;;;;;;;;5033285;28;20028;-62
2022/03/14 07:22:50;;;;;;;32.42;19.35;;;;;;;;;;5033024;28;20116;-62
2022/03/14 07:25:19;;;;;;;31.23;19.05;;;;;;;;;;5032863;28;20487;-62
2022/03/14 07:27:45;;;;;;;30.33;18.40;;;;;;;;;;5033168;28;20029;-62
2022/03/14 07:30:11;;;;;;;28.35;19.13;;;;;;;;;;5033060;28;20430;-63
2022/03/14 07:32:36;;;;;;;34.90;20.02;;;;;;;;;;5033078;28;20025;-62
2022/03/14 07:35:01;;;;;;;29.13;18.92;;;;;;;;;;5033007;28;20040;-62
2022/03/14 07:37:27;;;;;;;26.95;16.75;;;;;;;;;;5033040;28;20041;-62
2022/03/14 07:39:52;;;;;;;32.90;20.17;;;;;;;;;;5033036;28;20104;-62
2022/03/14 07:42:18;;;;;;;30.10;18.85;;;;;;;;;;5032962;28;20124;-62
2022/03/14 07:44:43;;;;;;;31.48;19.08;;;;;;;;;;5031866;28;20036;-62
2022/03/14 07:47:10;;;;;;;29.42;17.90;;;;;;;;;;5032983;28;20038;-62
2022/03/14 07:49:36;;;;;;;35.42;22.63;;;;;;;;;;5031729;28;20391;-62
2022/03/14 07:52:02;;;;;;;27.88;18.35;;;;;;;;;;5032917;28;20033;-62
2022/03/14 07:54:28;;;;;;;41.67;21.83;;;;;;;;;;5032986;28;20018;-63
2022/03/14 07:56:54;;;;;;;40.17;21.05;;;;;;;;;;5032942;28;20033;-63
2022/03/14 07:59:19;;;;;;;31.52;18.33;;;;;;;;;;5031563;28;20484;-62
2022/03/14 08:01:45;;;;;;;32.05;19.42;;;;;;;;;;5031587;28;20029;-62
2022/03/14 08:04:10;;;;;;;27.77;18.05;;;;;;;;;;5031575;28;20030;-62
2022/03/14 08:06:41;;;;;;;32.10;17.90;;;;;;;;;;5032804;28;20060;-62
2022/03/14 08:09:07;;;;;;;30.17;17.60;;;;;;;;;;5034059;28;20040;-62
2022/03/14 08:11:32;;;;;;;26.45;16.73;;;;;;;;;;5036821;28;20017;-62
2022/03/14 08:13:58;;;;;;;31.05;16.80;;;;;;;;;;5035117;28;20376;-62
2022/03/14 08:16:24;;;;;;;30.00;17.17;;;;;;;;;;5035496;28;20060;-62
2022/03/14 08:18:51;;;;;;;27.65;16.45;;;;;;;;;;5036582;28;20031;-63
2022/03/14 08:21:16;;;;;;;32.90;18.42;;;;;;;;;;5036610;28;20017;-62
2022/03/14 08:23:42;;;;;;;21.25;14.45;;;;;;;;;;5036547;28;20199;-62
2022/03/14 08:26:07;;;;;;;24.95;13.65;;;;;;;;;;5036241;28;20053;-62
2022/03/14 08:28:34;;;;;;;20.75;12.68;;;;;;;;;;5036327;28;20116;-62
2022/03/14 08:31:00;;;;;;;18.00;12.50;;;;;;;;;;5036274;28;20530;-62
2022/03/14 08:33:27;;;;;;;16.85;11.13;;;;;;;;;;5036195;28;20044;-62
2022/03/14 08:35:54;;;;;;;11.38;7.60;;;;;;;;;;5034867;28;20483;-62
2022/03/14 08:38:20;;;;;;;9.48;6.40;;;;;;;;;;5036183;28;20021;-61
2022/03/14 08:40:45;;;;;;;8.70;5.35;;;;;;;;;;5036110;28;20056;-62
2022/03/14 08:43:11;;;;;;;10.82;7.07;;;;;;;;;;5036133;28;20124;-63
2022/03/14 08:45:43;;;;;;;14.70;9.07;;;;;;;;;;5035943;28;20080;-62
2022/03/14 08:48:09;;;;;;;17.15;10.27;;;;;;;;;;5036067;28;20037;-63
2022/03/14 08:50:37;;;;;;;17.20;10.55;;;;;;;;;;5035723;28;20059;-62
2022/03/14 08:53:03;;;;;;;18.40;11.23;;;;;;;;;;5035939;28;20042;-62
2022/03/14 08:55:29;;;;;;;20.27;10.68;;;;;;;;;;5035834;28;20034;-62
2022/03/14 08:57:56;;;;;;;17.33;10.45;;;;;;;;;;5035818;28;20056;-62
2022/03/14 09:00:24;;;;;;;14.18;8.98;;;;;;;;;;5035869;28;20021;-62
2022/03/14 09:02:49;;;;;;;17.27;10.82;;;;;;;;;;5035774;28;20087;-62
2022/03/14 09:05:14;;;;;;;18.30;10.95;;;;;;;;;;5034344;28;20029;-62
2022/03/14 09:07:40;;;;;;;18.48;11.23;;;;;;;;;;5034180;28;20034;-63
2022/03/14 09:10:12;;;;;;;15.85;10.27;;;;;;;;;;5035504;28;20037;-62
2022/03/14 09:12:38;;;;;;;15.45;9.43;;;;;;;;;;5035507;28;20052;-63
2022/03/14 09:15:04;;;;;;;16.92;10.70;;;;;;;;;;5035475;28;20021;-62
2022/03/14 09:17:31;;;;;;;17.13;10.10;;;;;;;;;;5035454;28;20484;-63
2022/03/14 09:19:57;;;;;;;17.40;10.73;;;;;;;;;;5034728;28;20025;-62
2022/03/14 09:22:23;;;;;;;11.07;7.43;;;;;;;;;;5035130;28;20395;-62
2022/03/14 09:24:48;;;;;;;14.75;9.20;;;;;;;;;;5034876;28;20045;-62
2022/03/14 09:27:14;;;;;;;13.07;8.15;;;;;;;;;;5035259;28;20493;-62
2022/03/14 09:29:39;;;;;;;14.07;9.13;;;;;;;;;;5035154;28;20025;-61
2022/03/14 09:32:05;;;;;;;13.95;8.27;;;;;;;;;;5034890;28;20056;-62
2022/03/14 09:34:31;;;;;;;10.73;6.18;;;;;;;;;;5035171;28;20376;-62
2022/03/14 09:36:57;;;;;;;10.60;6.72;;;;;;;;;;5034972;28;20022;-62
2022/03/14 09:39:23;;;;;;;16.60;8.70;;;;;;;;;;5035017;28;20025;-62
2022/03/14 09:41:53;;;;;;;8.23;5.03;;;;;;;;;;5034948;28;20103;-62
2022/03/14 09:44:20;;;;;;;7.28;5.00;;;;;;;;;;5034953;28;20033;-62
2022/03/14 09:46:48;;;;;;;8.13;6.45;;;;;;;;;;5034815;28;20383;-63
2022/03/14 09:49:15;;;;;;;8.73;6.22;;;;;;;;;;5033587;28;20037;-62
2022/03/14 09:51:41;;;;;;;9.63;6.28;;;;;;;;;;5034795;28;20045;-62
2022/03/14 09:54:07;;;;;;;5.75;4.40;;;;;;;;;;5034774;28;20049;-62
2022/03/14 09:56:32;;;;;;;4.35;3.60;;;;;;;;;;5034597;28;20052;-62
2022/03/14 09:58:59;;;;;;;6.55;4.07;;;;;;;;;;5034649;28;20394;-63
2022/03/14 10:01:24;;;;;;;5.78;3.90;;;;;;;;;;5034346;28;20029;-63
2022/03/14 10:03:50;;;;;;;5.82;3.47;;;;;;;;;;5034555;28;20033;-62
2022/03/14 10:06:15;;;;;;;5.47;4.30;;;;;;;;;;5034488;28;20075;-62
2022/03/14 10:08:41;;;;;;;6.47;3.63;;;;;;;;;;5034353;28;20029;-62
2022/03/14 10:11:07;;;;;;;5.55;3.78;;;;;;;;;;5034345;28;20017;-62
2022/03/14 10:13:33;;;;;;;8.45;4.25;;;;;;;;;;5034234;28;20022;-62
2022/03/14 10:15:58;;;;;;;4.57;3.47;;;;;;;;;;5034290;28;20017;-62
2022/03/14 10:18:24;;;;;;;3.65;3.35;;;;;;;;;;5034271;28;20025;-62
2022/03/14 10:21:05;;;;;;;5.15;3.15;;;;;;;;;;5034152;28;20029;-62
2022/03/14 10:23:33;;;;;;;3.28;2.85;;;;;;;;;;5034378;28;20116;-62
2022/03/14 10:26:00;;;;;;;6.88;4.00;;;;;;;;;;5034012;28;20056;-62
2022/03/14 10:28:38;;;;;;;4.65;3.88;;;;;;;;;;5034139;28;20046;-63
2022/03/14 10:31:06;;;;;;;6.05;3.70;;;;;;;;;;5033928;28;20041;-63
2022/03/14 10:33:32;;;;;;;3.38;2.90;;;;;;;;;;5033983;28;20021;-62
2022/03/14 10:35:58;;;;;;;4.07;3.10;;;;;;;;;;5033786;28;20025;-62
2022/03/14 10:38:26;;;;;;;3.88;3.53;;;;;;;;;;5033829;28;20022;-63
2022/03/14 10:40:53;;;;;;;2.85;2.63;;;;;;;;;;5033936;28;20037;-63
2022/03/14 10:43:24;;;;;;;3.88;3.47;;;;;;;;;;5033980;28;20033;-63
2022/03/14 10:45:50;;;;;;;7.28;4.25;;;;;;;;;;5033777;28;20483;-63
2022/03/14 10:48:15;;;;;;;5.78;3.22;;;;;;;;;;5032525;28;20036;-63
2022/03/14 10:50:41;;;;;;;4.70;4.15;;;;;;;;;;5032436;28;20030;-63
2022/03/14 10:53:16;;;;;;;6.40;4.88;;;;;;;;;;5033649;28;20021;-63
2022/03/14 10:55:42;;;;;;;9.02;4.60;;;;;;;;;;5033492;28;20120;-64
2022/03/14 10:58:09;;;;;;;3.80;3.25;;;;;;;;;;5033612;28;20029;-63
2022/03/14 11:00:47;;;;;;;4.68;3.38;;;;;;;;;;5033495;28;20033;-62
2022/03/14 11:03:20;;;;;;;4.88;3.97;;;;;;;;;;5033472;28;20090;-62
2022/03/14 11:05:45;;;;;;;4.72;3.70;;;;;;;;;;5033557;28;20372;-62
2022/03/14 11:08:24;;;;;;;5.35;3.33;;;;;;;;;;5033485;28;20097;-63
2022/03/14 11:10:50;;;;;;;3.75;3.35;;;;;;;;;;5033289;28;20022;-63
2022/03/14 11:13:15;;;;;;;4.57;3.38;;;;;;;;;;5032176;28;20024;-63
2022/03/14 11:15:41;;;;;;;3.22;2.63;;;;;;;;;;5033223;28;20025;-63
2022/03/14 11:18:06;;;;;;;3.50;3.00;;;;;;;;;;5033213;28;20376;-63
2022/03/14 11:20:32;;;;;;;5.07;3.70;;;;;;;;;;5033108;28;20164;-63
2022/03/14 11:22:58;;;;;;;3.83;2.75;;;;;;;;;;5033059;28;20049;-63
2022/03/14 11:25:25;;;;;;;4.10;3.67;;;;;;;;;;5032717;28;20045;-63
2022/03/14 11:27:51;;;;;;;5.00;3.70;;;;;;;;;;5033129;28;20063;-63
2022/03/14 11:30:17;;;;;;;4.43;3.42;;;;;;;;;;5032921;28;20029;-63
2022/03/14 11:32:44;;;;;;;5.95;4.47;;;;;;;;;;5031724;28;20568;-63
2022/03/14 11:35:10;;;;;;;4.88;4.07;;;;;;;;;;5033106;28;20033;-62
2022/03/14 11:37:35;;;;;;;6.05;4.68;;;;;;;;;;5032955;28;20068;-63
2022/03/14 11:40:03;;;;;;;4.97;3.90;;;;;;;;;;5032974;28;20029;-63
2022/03/14 11:42:29;;;;;;;6.22;4.43;;;;;;;;;;5031368;28;20468;-63
2022/03/14 11:44:55;;;;;;;5.43;4.30;;;;;;;;;;5032875;28;20079;-63
2022/03/14 11:47:21;;;;;;;7.53;5.47;;;;;;;;;;5032979;28;20033;-63
2022/03/14 11:49:47;;;;;;;7.80;6.25;;;;;;;;;;5032399;28;20026;-63
2022/03/14 11:52:12;;;;;;;5.63;4.35;;;;;;;;;;5032816;28;20441;-63
2022/03/14 11:54:40;;;;;;;8.23;5.80;;;;;;;;;;5032881;28;20092;-63
2022/03/14 11:57:06;;;;;;;8.63;6.47;;;;;;;;;;5032715;28;20055;-63
2022/03/14 11:59:32;;;;;;;9.18;6.53;;;;;;;;;;5032700;28;20041;-63
2022/03/14 12:02:00;;;;;;;7.10;4.55;;;;;;;;;;5032859;28;20057;-62
2022/03/14 12:04:27;;;;;;;7.72;5.72;;;;;;;;;;5032741;28;20056;-63
2022/03/14 12:06:52;;;;;;;7.28;5.88;;;;;;;;;;5031532;28;20021;-63
2022/03/14 12:09:24;;;;;;;5.65;5.05;;;;;;;;;;5031337;28;20491;-63
2022/03/14 12:11:53;;;;;;;3.00;2.05;;;;;;;;;;5032645;28;20037;-63
2022/03/14 12:14:37;;;;;;;2.60;2.40;;;;;;;;;;5032779;28;20014;-63
2022/03/14 12:17:15;;;;;;;3.17;2.63;;;;;;;;;;5032698;28;20413;-63
2022/03/14 12:19:47;;;;;;;3.42;3.13;;;;;;;;;;5032483;28;20077;-63
2022/03/14 12:22:14;;;;;;;3.67;2.75;;;;;;;;;;5032498;28;20045;-63
2022/03/14 12:24:39;;;;;;;3.10;2.80;;;;;;;;;;5032045;28;20411;-63
2022/03/14 12:27:15;;;;;;;3.17;2.85;;;;;;;;;;5032778;28;20034;-63
2022/03/14 12:29:41;;;;;;;3.22;2.92;;;;;;;;;;5032476;28;20059;-63
2022/03/14 12:32:21;;;;;;;5.25;2.63;;;;;;;;;;5032436;28;20196;-63
2022/03/14 12:34:47;;;;;;;;;;;;;;;;;;5031914;28;20044;-63
2022/03/14 12:37:36;;;;;;;3.38;2.85;;;;;;;;;;5031145;28;19909;-63
2022/03/14 12:40:03;;;;;;;3.97;3.15;;;;;;;;;;5032624;28;20395;-63
2022/03/14 12:42:36;;;;;;;4.65;3.40;;;;;;;;;;5032557;28;20021;-63
2022/03/14 12:45:15;;;;;;;3.35;2.65;;;;;;;;;;5014779;28;20038;-62
2022/03/14 12:47:41;;;;;;;4.28;3.63;;;;;;;;;;5014791;28;20034;-63
2022/03/14 12:50:06;;;;;;;3.88;3.38;;;;;;;;;;5032295;28;20025;-63
2022/03/14 12:52:52;;;;;;;7.63;4.95;;;;;;;;;;5032467;28;20033;-63
2022/03/14 12:55:19;;;;;;;3.70;2.25;;;;;;;;;;5033552;28;20196;-63
2022/03/14 12:57:49;;;;;;;2.58;2.35;;;;;;;;;;5034697;28;20024;-63
2022/03/14 13:00:15;;;;;;;3.55;3.20;;;;;;;;;;5036015;28;20095;-63
2022/03/14 13:02:40;;;;;;;3.50;3.00;;;;;;;;;;5035861;28;20467;-63
2022/03/14 13:05:06;;;;;;;3.92;2.55;;;;;;;;;;5035794;28;20041;-63
2022/03/14 13:07:33;;;;;;;4.93;2.80;;;;;;;;;;5035755;28;20075;-63
2022/03/14 13:09:58;;;;;;;3.17;2.88;;;;;;;;;;5035829;28;20051;-63
2022/03/14 13:12:25;;;;;;;6.18;3.60;;;;;;;;;;5035742;28;20410;-63
2022/03/14 13:14:51;;;;;;;4.28;2.80;;;;;;;;;;5035750;28;20124;-62
2022/03/14 13:17:26;;;;;;;2.90;2.67;;;;;;;;;;5035638;28;20017;-63
2022/03/14 13:19:52;;;;;;;3.65;3.03;;;;;;;;;;5034327;28;20030;-63
2022/03/14 13:22:18;;;;;;;4.80;3.00;;;;;;;;;;5035462;28;20029;-63
2022/03/14 13:24:47;;;;;;;5.32;2.92;;;;;;;;;;5034977;28;20401;-63
2022/03/14 13:27:25;;;;;;;4.13;3.20;;;;;;;;;;5035564;28;20048;-63
2022/03/14 13:29:51;;;;;;;5.63;3.15;;;;;;;;;;5035485;28;20061;-63
2022/03/14 13:32:18;;;;;;;4.07;3.10;;;;;;;;;;5035231;28;20053;-63
2022/03/14 13:34:45;;;;;;;2.53;2.33;;;;;;;;;;5035271;28;20037;-63
2022/03/14 13:37:11;;;;;;;3.15;2.85;;;;;;;;;;5034968;28;20024;-62
2022/03/14 13:39:36;;;;;;;4.95;3.28;;;;;;;;;;5035153;28;20033;-63
2022/03/14 13:42:03;;;;;;;4.60;3.45;;;;;;;;;;5035221;28;20022;-63
2022/03/14 13:44:28;;;;;;;4.20;3.35;;;;;;;;;;5035404;28;20521;-63
2022/03/14 13:46:55;;;;;;;4.30;3.38;;;;;;;;;;5035213;28;20022;-63
2022/03/14 13:49:24;;;;;;;4.70;3.10;;;;;;;;;;5035163;28;20036;-63
2022/03/14 13:51:53;;;;;;;3.03;2.65;;;;;;;;;;5035121;28;20523;-63
2022/03/14 13:54:22;;;;;;;2.80;2.53;;;;;;;;;;5033781;28;20044;-63
2022/03/14 13:56:48;;;;;;;4.18;2.97;;;;;;;;;;5034974;28;20506;-63
2022/03/14 13:59:25;;;;;;;4.90;3.75;;;;;;;;;;5034820;28;20029;-63
2022/03/14 14:01:52;;;;;;;4.22;3.72;;;;;;;;;;5034979;28;20039;-63
2022/03/14 14:04:23;;;;;;;3.83;2.97;;;;;;;;;;5034790;28;20108;-63
2022/03/14 14:06:50;;;;;;;3.75;2.95;;;;;;;;;;5033383;28;20442;-63
2022/03/14 14:09:16;;;;;;;4.32;3.88;;;;;;;;;;5034893;28;20482;-63
2022/03/14 14:11:54;;;;;;;6.32;4.20;;;;;;;;;;5034568;28;20026;-63
2022/03/14 14:14:29;;;;;;;5.75;4.13;;;;;;;;;;5034634;28;20499;-63
2022/03/14 14:17:30;;;;;;;4.45;3.30;;;;;;;;;;5034584;28;20040;-63
2022/03/14 14:19:55;;;;;;;;;;;;;;;;;;5032723;28;20416;-63
2022/03/14 14:22:34;;;;;;;6.82;4.15;;;;;;;;;;5033801;28;19909;-63
2022/03/14 14:25:03;;;;;;;4.22;3.83;;;;;;;;;;5033739;28;20041;-62